Time;durP1;ratioP1;P1;durP2;ratioP2;P2;SDS_P1;SDS_P2;PMS_P1;PMS_P2;Temp;Humidity;BMP_temperature;BMP_pressure;BME280_temperature;BME280_humidity;BME280_pressure;Samples;Min_cycle;Max_cycle;Signal;HPM_P1;HPM_P2
2023/01/23 00:00:41;;;;;;;25.63;15.37;;;;;;;;;;5022646;28;20547;-89
2023/01/23 00:03:46;;;;;;;22.87;14.23;;;;;;;;;;5011637;28;20551;-89
2023/01/23 00:06:50;;;;;;;24.47;14.17;;;;;;;;;;5011128;28;20605;-89
2023/01/23 00:09:54;;;;;;;23.30;13.43;;;;;;;;;;5010909;28;20559;-88
2023/01/23 00:12:59;;;;;;;21.73;13.30;;;;;;;;;;5010909;28;20661;-88
2023/01/23 00:16:09;;;;;;;21.70;13.87;;;;;;;;;;5010896;28;21128;-89
2023/01/23 00:19:13;;;;;;;23.63;13.77;;;;;;;;;;5011181;28;20559;-88
2023/01/23 00:22:18;;;;;;;20.33;13.07;;;;;;;;;;5034047;28;20634;-88
2023/01/23 00:25:22;;;;;;;23.07;13.07;;;;;;;;;;5010854;28;20547;-89
2023/01/23 00:28:26;;;;;;;22.80;13.87;;;;;;;;;;5022268;28;20559;-89
2023/01/23 00:31:33;;;;;;;22.73;13.67;;;;;;;;;;5033423;28;20701;-89
2023/01/23 00:34:37;;;;;;;22.30;13.83;;;;;;;;;;5011042;28;20611;-89
2023/01/23 00:37:42;;;;;;;25.93;13.83;;;;;;;;;;5022569;28;20554;-89
2023/01/23 00:40:46;;;;;;;20.73;12.63;;;;;;;;;;5010788;28;20555;-89
2023/01/23 00:43:51;;;;;;;19.80;12.17;;;;;;;;;;5011021;28;20613;-89
2023/01/23 00:46:57;;;;;;;23.33;12.73;;;;;;;;;;5022390;28;20622;-89
2023/01/23 00:50:02;;;;;;;21.27;13.40;;;;;;;;;;5022945;28;20563;-88
2023/01/23 00:53:06;;;;;;;19.00;11.77;;;;;;;;;;5011324;28;20666;-89
2023/01/23 00:56:10;;;;;;;23.33;13.50;;;;;;;;;;5022441;28;21184;-89
2023/01/23 00:59:15;;;;;;;21.97;14.20;;;;;;;;;;5000633;28;20559;-89
2023/01/23 01:02:19;;;;;;;23.33;14.23;;;;;;;;;;5017864;28;20639;-89
2023/01/23 01:05:23;;;;;;;22.83;14.03;;;;;;;;;;5006890;28;20547;-88
2023/01/23 01:08:27;;;;;;;22.73;14.60;;;;;;;;;;5017662;28;20563;-88
2023/01/23 01:11:31;;;;;;;25.73;14.73;;;;;;;;;;5028280;28;20634;-88
2023/01/23 01:14:36;;;;;;;24.30;14.50;;;;;;;;;;5017640;28;20626;-88
2023/01/23 01:17:41;;;;;;;25.77;14.57;;;;;;;;;;5029436;28;20560;-88
2023/01/23 01:20:45;;;;;;;25.97;13.97;;;;;;;;;;5028364;28;20610;-88
2023/01/23 01:23:49;;;;;;;26.60;15.37;;;;;;;;;;5006445;28;20551;-88
2023/01/23 01:26:53;;;;;;;28.53;16.17;;;;;;;;;;5017927;28;20559;-89
2023/01/23 01:30:00;;;;;;;25.83;15.00;;;;;;;;;;5017440;28;20720;-88
2023/01/23 01:33:05;;;;;;;23.73;14.67;;;;;;;;;;5006467;28;20642;-88
2023/01/23 01:36:11;;;;;;;26.33;15.60;;;;;;;;;;5029959;28;20563;-88
2023/01/23 01:39:15;;;;;;;28.80;16.47;;;;;;;;;;5017366;28;20554;-88
2023/01/23 01:42:19;;;;;;;30.37;17.27;;;;;;;;;;5017280;28;20649;-88
2023/01/23 01:46:01;;;;;;;33.97;17.53;;;;;;;;;;5028168;28;20605;-89
2023/01/23 01:49:17;;;;;;;28.93;16.47;;;;;;;;;;5005428;28;20547;-89
2023/01/23 01:52:22;;;;;;;30.70;17.23;;;;;;;;;;5019742;28;20986;-87
2023/01/23 01:55:27;;;;;;;30.17;17.60;;;;;;;;;;5022706;28;20551;-87
2023/01/23 01:58:31;;;;;;;29.80;17.33;;;;;;;;;;5034114;28;20919;-87
2023/01/23 02:01:37;;;;;;;31.80;18.00;;;;;;;;;;5033083;28;20629;-87
2023/01/23 02:04:47;;;;;;;31.17;18.00;;;;;;;;;;5011187;28;20912;-87
2023/01/23 02:07:58;;;;;;;31.50;17.83;;;;;;;;;;5021749;28;21120;-87
2023/01/23 02:11:02;;;;;;;32.00;17.73;;;;;;;;;;5020700;28;20598;-86
2023/01/23 02:14:07;;;;;;;31.40;17.13;;;;;;;;;;5030367;28;20620;-87
2023/01/23 02:17:12;;;;;;;27.57;15.77;;;;;;;;;;5019224;28;20559;-87
2023/01/23 02:20:19;;;;;;;30.13;16.67;;;;;;;;;;5018946;28;21121;-86
2023/01/23 02:23:55;;;;;;;30.07;16.97;;;;;;;;;;5029984;28;20622;-86
2023/01/23 02:27:02;;;;;;;28.23;15.80;;;;;;;;;;5007673;28;20657;-87
2023/01/23 02:30:08;;;;;;;26.27;15.77;;;;;;;;;;5019205;28;20912;-87
2023/01/23 02:33:19;;;;;;;28.90;16.47;;;;;;;;;;5018881;28;20634;-88
2023/01/23 02:36:27;;;;;;;27.47;16.03;;;;;;;;;;5030258;28;20551;-87
2023/01/23 02:39:33;;;;;;;27.73;15.77;;;;;;;;;;5008276;28;20571;-86
2023/01/23 02:42:42;;;;;;;24.20;14.63;;;;;;;;;;5018595;28;21224;-87
2023/01/23 02:45:48;;;;;;;21.60;13.17;;;;;;;;;;5025308;28;20570;-87
2023/01/23 02:48:53;;;;;;;22.13;13.83;;;;;;;;;;5019130;28;20598;-87
2023/01/23 02:51:57;;;;;;;27.33;15.43;;;;;;;;;;5019065;28;20629;-86
2023/01/23 02:55:01;;;;;;;28.10;15.53;;;;;;;;;;5018892;28;20626;-88
2023/01/23 03:01:28;;;;;;;26.80;15.10;;;;;;;;;;5019411;28;20591;-87
2023/01/23 03:04:33;;;;;;;30.27;17.23;;;;;;;;;;5030043;28;21189;-86
2023/01/23 03:07:37;;;;;;;24.27;15.20;;;;;;;;;;5018611;28;20614;-87
2023/01/23 03:10:41;;;;;;;30.90;15.67;;;;;;;;;;5007439;28;20910;-87
2023/01/23 03:13:47;;;;;;;24.97;15.67;;;;;;;;;;5018551;28;20617;-86
2023/01/23 03:16:52;;;;;;;28.03;16.07;;;;;;;;;;5007494;28;20559;-87
2023/01/23 03:19:58;;;;;;;29.17;15.30;;;;;;;;;;5018383;28;20610;-87
2023/01/23 03:23:03;;;;;;;29.77;16.43;;;;;;;;;;5018591;28;21215;-86
2023/01/23 03:26:07;;;;;;;27.23;15.07;;;;;;;;;;5019663;28;20555;-86
2023/01/23 03:32:38;;;;;;;25.50;14.10;;;;;;;;;;5029383;28;20627;-87
2023/01/23 03:35:42;;;;;;;23.57;13.53;;;;;;;;;;5018601;28;21216;-87
2023/01/23 03:42:09;;;;;;;22.97;13.77;;;;;;;;;;5018182;28;20986;-87
2023/01/23 03:45:14;;;;;;;22.70;13.27;;;;;;;;;;5018029;28;20626;-87
2023/01/23 03:48:19;;;;;;;25.17;14.03;;;;;;;;;;5017452;28;20565;-86
2023/01/23 03:51:23;;;;;;;26.67;14.80;;;;;;;;;;5017400;28;20599;-86
2023/01/23 03:54:28;;;;;;;25.77;14.70;;;;;;;;;;5016761;28;20636;-86
2023/01/23 03:57:33;;;;;;;27.37;14.83;;;;;;;;;;5017749;28;20559;-87
2023/01/23 04:00:49;;;;;;;24.37;13.80;;;;;;;;;;5008514;28;20555;-87
2023/01/23 04:03:53;;;;;;;21.53;13.07;;;;;;;;;;5018692;28;20594;-86
2023/01/23 04:07:00;;;;;;;22.07;13.30;;;;;;;;;;5006691;28;20646;-87
2023/01/23 04:10:07;;;;;;;23.83;13.23;;;;;;;;;;5006362;28;20602;-87
2023/01/23 04:13:12;;;;;;;18.83;12.33;;;;;;;;;;5017470;28;20716;-87
2023/01/23 04:16:16;;;;;;;21.03;11.90;;;;;;;;;;5006612;28;20555;-87
2023/01/23 04:19:21;;;;;;;23.80;13.87;;;;;;;;;;5017487;28;21192;-87
2023/01/23 04:22:25;;;;;;;19.83;12.63;;;;;;;;;;5013111;28;20634;-88
2023/01/23 04:25:29;;;;;;;21.83;11.70;;;;;;;;;;5010273;28;21196;-89
2023/01/23 04:28:33;;;;;;;21.20;12.13;;;;;;;;;;5010464;28;20606;-88
2023/01/23 04:31:37;;;;;;;20.20;12.00;;;;;;;;;;5010067;28;20638;-88
2023/01/23 04:34:42;;;;;;;16.87;10.90;;;;;;;;;;5009881;28;21185;-89
2023/01/23 04:37:47;;;;;;;16.80;10.60;;;;;;;;;;5021413;28;20558;-88
2023/01/23 04:40:52;;;;;;;19.73;11.17;;;;;;;;;;4999169;28;20558;-88
2023/01/23 04:43:56;;;;;;;17.73;10.50;;;;;;;;;;4998984;28;20614;-88
2023/01/23 04:47:00;;;;;;;16.83;10.60;;;;;;;;;;5010096;28;20559;-88
2023/01/23 04:50:06;;;;;;;17.93;10.23;;;;;;;;;;5010099;28;20598;-88
2023/01/23 04:53:12;;;;;;;18.97;10.30;;;;;;;;;;5021253;28;20717;-89
2023/01/23 04:56:17;;;;;;;15.90;10.17;;;;;;;;;;5021742;28;20547;-88
2023/01/23 04:59:21;;;;;;;15.13;9.97;;;;;;;;;;5010459;28;20563;-89
2023/01/23 05:02:26;;;;;;;19.07;11.73;;;;;;;;;;5010178;28;21199;-88
2023/01/23 05:05:31;;;;;;;15.27;9.90;;;;;;;;;;5021225;28;20631;-88
2023/01/23 05:08:37;;;;;;;15.07;9.83;;;;;;;;;;5010582;28;20939;-89
2023/01/23 05:11:52;;;;;;;17.07;10.07;;;;;;;;;;5000353;28;20626;-89
2023/01/23 05:14:59;;;;;;;17.17;10.50;;;;;;;;;;4999259;28;20614;-89
2023/01/23 05:18:03;;;;;;;15.73;10.33;;;;;;;;;;5009982;28;20578;-88
2023/01/23 05:21:07;;;;;;;19.23;10.50;;;;;;;;;;5010409;28;20554;-89
2023/01/23 05:24:11;;;;;;;15.50;9.67;;;;;;;;;;5021063;28;20559;-88
2023/01/23 05:27:15;;;;;;;15.23;9.40;;;;;;;;;;5020870;28;20551;-89
2023/01/23 05:30:22;;;;;;;15.50;9.80;;;;;;;;;;4999271;28;21228;-89
2023/01/23 05:33:29;;;;;;;16.60;10.20;;;;;;;;;;5009736;28;20629;-89
2023/01/23 05:36:33;;;;;;;15.77;10.13;;;;;;;;;;5009799;28;20556;-88
2023/01/23 05:39:38;;;;;;;16.60;10.07;;;;;;;;;;4999345;28;20558;-89
2023/01/23 05:42:42;;;;;;;20.77;11.17;;;;;;;;;;4998294;28;20642;-89
2023/01/23 05:46:06;;;;;;;18.00;9.73;;;;;;;;;;5023839;28;20555;-89
2023/01/23 05:49:22;;;;;;;16.10;9.50;;;;;;;;;;5025786;28;20606;-89
2023/01/23 05:52:28;;;;;;;16.97;9.90;;;;;;;;;;5015074;28;20664;-89
2023/01/23 05:55:32;;;;;;;17.40;10.10;;;;;;;;;;5014754;28;20615;-88
2023/01/23 05:58:37;;;;;;;20.53;11.73;;;;;;;;;;5003065;28;21125;-89
2023/01/23 06:01:57;;;;;;;22.27;11.70;;;;;;;;;;5005879;28;20634;-88
2023/01/23 06:05:40;;;;;;;22.57;12.43;;;;;;;;;;5026214;28;20559;-88
2023/01/23 06:08:49;;;;;;;28.30;14.97;;;;;;;;;;5014248;28;21109;-89
2023/01/23 06:11:53;;;;;;;20.63;11.97;;;;;;;;;;5013172;28;20622;-88
2023/01/23 06:14:59;;;;;;;19.80;11.10;;;;;;;;;;5001976;28;20619;-89
2023/01/23 06:18:04;;;;;;;35.97;19.77;;;;;;;;;;4982487;28;20564;-89
2023/01/23 06:21:08;;;;;;;26.27;14.83;;;;;;;;;;5017080;28;20912;-88
2023/01/23 06:24:14;;;;;;;23.80;13.17;;;;;;;;;;4982160;28;20560;-89
2023/01/23 06:27:18;;;;;;;46.10;26.03;;;;;;;;;;5004214;28;20559;-89
2023/01/23 06:30:22;;;;;;;26.80;15.60;;;;;;;;;;4992858;28;20551;-88
2023/01/23 06:33:27;;;;;;;29.07;15.80;;;;;;;;;;4981754;28;20630;-89
2023/01/23 06:36:33;;;;;;;24.93;13.53;;;;;;;;;;5004054;28;20980;-88
2023/01/23 06:39:37;;;;;;;19.27;11.73;;;;;;;;;;4992837;28;20648;-88
2023/01/23 06:42:43;;;;;;;21.20;12.20;;;;;;;;;;5004090;28;20615;-89
2023/01/23 06:45:48;;;;;;;20.97;11.67;;;;;;;;;;5003786;28;20564;-89
2023/01/23 06:48:53;;;;;;;20.43;11.87;;;;;;;;;;5003887;28;21130;-89
2023/01/23 06:51:58;;;;;;;18.50;11.20;;;;;;;;;;4993573;28;21105;-88
2023/01/23 06:55:05;;;;;;;21.07;11.87;;;;;;;;;;4992446;28;20612;-90
2023/01/23 06:58:10;;;;;;;22.83;12.67;;;;;;;;;;5003258;28;20599;-89
2023/01/23 07:01:17;;;;;;;22.20;12.47;;;;;;;;;;4992578;28;20564;-89
2023/01/23 07:04:52;;;;;;;22.23;12.50;;;;;;;;;;4985336;28;20556;-89
2023/01/23 07:07:57;;;;;;;23.17;12.77;;;;;;;;;;4981290;28;20916;-88
2023/01/23 07:11:02;;;;;;;23.20;13.70;;;;;;;;;;5003178;28;20603;-88
2023/01/23 07:14:06;;;;;;;24.73;14.27;;;;;;;;;;4981432;28;21197;-86
2023/01/23 07:17:11;;;;;;;22.53;12.93;;;;;;;;;;5009004;28;20560;-87
2023/01/23 07:20:16;;;;;;;24.17;13.10;;;;;;;;;;4997597;28;20603;-87
2023/01/23 07:23:26;;;;;;;19.10;12.20;;;;;;;;;;5008730;28;20636;-88
2023/01/23 07:26:30;;;;;;;25.30;12.93;;;;;;;;;;5008815;28;20555;-87
2023/01/23 07:29:34;;;;;;;24.93;12.90;;;;;;;;;;5009354;28;20551;-88
2023/01/23 07:32:38;;;;;;;22.20;12.77;;;;;;;;;;4986325;28;21229;-87
2023/01/23 07:35:42;;;;;;;27.07;13.73;;;;;;;;;;4986410;28;20651;-87
2023/01/23 07:38:47;;;;;;;24.23;12.87;;;;;;;;;;4986862;28;20603;-87
2023/01/23 07:41:51;;;;;;;29.33;15.27;;;;;;;;;;4987175;28;20639;-87
2023/01/23 07:44:55;;;;;;;26.10;13.77;;;;;;;;;;4986475;28;20635;-88
2023/01/23 07:47:59;;;;;;;24.10;14.23;;;;;;;;;;4998172;28;20568;-87
2023/01/23 07:51:04;;;;;;;27.40;13.63;;;;;;;;;;4997640;28;20559;-87
2023/01/23 07:54:09;;;;;;;24.03;12.93;;;;;;;;;;4987079;28;20564;-87
2023/01/23 07:57:13;;;;;;;26.43;13.67;;;;;;;;;;4987058;28;20552;-88
2023/01/23 08:00:17;;;;;;;27.70;14.87;;;;;;;;;;4997200;28;20552;-87
2023/01/23 08:03:21;;;;;;;27.03;13.90;;;;;;;;;;4992430;28;20626;-88
2023/01/23 08:06:25;;;;;;;26.70;14.17;;;;;;;;;;4980249;28;20548;-89
2023/01/23 08:09:29;;;;;;;29.77;15.50;;;;;;;;;;4990616;28;20560;-88
2023/01/23 08:12:34;;;;;;;25.63;13.47;;;;;;;;;;4991683;28;20934;-88
2023/01/23 08:15:38;;;;;;;28.07;14.50;;;;;;;;;;4992019;28;20619;-89
2023/01/23 08:18:42;;;;;;;29.37;13.50;;;;;;;;;;4991925;28;21131;-89
2023/01/23 08:21:47;;;;;;;22.73;13.40;;;;;;;;;;4991082;28;20623;-89
2023/01/23 08:24:51;;;;;;;25.30;14.10;;;;;;;;;;4991084;28;20560;-88
2023/01/23 08:27:55;;;;;;;26.40;14.07;;;;;;;;;;4991014;28;20552;-88
2023/01/23 08:31:01;;;;;;;23.27;13.40;;;;;;;;;;4991111;28;20559;-89
2023/01/23 08:34:06;;;;;;;25.13;13.60;;;;;;;;;;4991338;28;20556;-88
2023/01/23 08:37:09;;;;;;;25.57;13.13;;;;;;;;;;5002579;28;20649;-88
2023/01/23 08:40:14;;;;;;;24.20;13.33;;;;;;;;;;4991546;28;20564;-88
2023/01/23 08:43:18;;;;;;;26.33;13.50;;;;;;;;;;4991207;28;20623;-88
2023/01/23 08:46:22;;;;;;;24.13;13.40;;;;;;;;;;4980397;28;20564;-88
2023/01/23 08:49:27;;;;;;;25.63;13.00;;;;;;;;;;5002773;28;21118;-88
2023/01/23 08:52:33;;;;;;;23.70;13.27;;;;;;;;;;4980563;28;20641;-88
2023/01/23 08:55:38;;;;;;;24.80;13.80;;;;;;;;;;4991352;28;20612;-88
2023/01/23 08:58:42;;;;;;;25.20;13.00;;;;;;;;;;5002140;28;20556;-88
2023/01/23 09:01:47;;;;;;;25.43;14.30;;;;;;;;;;4991134;28;21200;-88
2023/01/23 09:04:51;;;;;;;25.73;12.80;;;;;;;;;;5002548;28;20606;-88
2023/01/23 09:07:56;;;;;;;27.10;14.27;;;;;;;;;;5002740;28;20554;-88
2023/01/23 09:11:01;;;;;;;29.27;15.40;;;;;;;;;;5002586;28;20603;-88
2023/01/23 09:14:05;;;;;;;27.73;14.53;;;;;;;;;;4991872;28;21181;-88
2023/01/23 09:17:09;;;;;;;26.80;14.60;;;;;;;;;;4991340;28;20620;-88
2023/01/23 09:20:14;;;;;;;27.83;13.77;;;;;;;;;;5008316;28;20948;-89
2023/01/23 09:23:18;;;;;;;26.67;13.90;;;;;;;;;;4990005;28;20984;-89
2023/01/23 09:26:23;;;;;;;30.57;15.13;;;;;;;;;;5002515;28;20561;-88
2023/01/23 09:29:27;;;;;;;26.00;14.53;;;;;;;;;;5003011;28;20903;-88
2023/01/23 09:32:32;;;;;;;23.20;13.63;;;;;;;;;;5014503;28;20632;-89
2023/01/23 09:35:36;;;;;;;29.70;14.70;;;;;;;;;;5015028;28;20655;-89
2023/01/23 09:38:40;;;;;;;29.17;15.27;;;;;;;;;;5004439;28;21188;-89
2023/01/23 09:41:45;;;;;;;26.00;13.73;;;;;;;;;;5003144;28;20639;-89
2023/01/23 09:44:54;;;;;;;25.40;14.20;;;;;;;;;;5002930;28;20614;-89
2023/01/23 09:48:19;;;;;;;25.43;14.37;;;;;;;;;;5003468;28;20551;-89
2023/01/23 09:51:40;;;;;;;26.53;13.70;;;;;;;;;;5003107;28;20552;-90
2023/01/23 09:54:53;;;;;;;26.07;14.63;;;;;;;;;;5013701;28;20558;-89
2023/01/23 09:58:02;;;;;;;27.07;14.20;;;;;;;;;;5002577;28;20552;-88
2023/01/23 10:01:12;;;;;;;22.47;12.97;;;;;;;;;;5002153;28;20556;-88
2023/01/23 10:04:18;;;;;;;26.40;13.83;;;;;;;;;;5013334;28;20626;-89
2023/01/23 10:08:03;;;;;;;25.70;14.13;;;;;;;;;;5012547;28;20552;-88
2023/01/23 10:11:52;;;;;;;27.80;14.23;;;;;;;;;;4980595;28;20632;-88
2023/01/23 10:15:12;;;;;;;27.83;15.00;;;;;;;;;;5000800;28;20596;-89
2023/01/23 10:18:27;;;;;;;30.40;15.43;;;;;;;;;;5011769;28;20541;-89
2023/01/23 10:21:34;;;;;;;22.87;13.77;;;;;;;;;;5011635;28;21209;-89
2023/01/23 10:24:51;;;;;;;25.43;13.40;;;;;;;;;;4988770;28;20562;-91
2023/01/23 10:28:11;;;;;;;27.07;14.40;;;;;;;;;;4988719;28;20556;-89
2023/01/23 10:31:38;;;;;;;27.07;13.87;;;;;;;;;;4999017;28;20561;-89
2023/01/23 10:34:57;;;;;;;24.53;14.17;;;;;;;;;;4998371;28;20549;-90
2023/01/23 10:38:42;;;;;;;21.47;12.60;;;;;;;;;;5009157;28;20566;-89
2023/01/23 10:41:46;;;;;;;24.50;14.20;;;;;;;;;;4987728;28;20625;-90
2023/01/23 10:44:50;;;;;;;27.70;15.27;;;;;;;;;;5010852;28;20975;-90
2023/01/23 10:47:54;;;;;;;24.67;13.47;;;;;;;;;;4997433;28;20549;-89
2023/01/23 10:50:59;;;;;;;25.73;13.60;;;;;;;;;;4996105;28;20595;-88
2023/01/23 10:54:19;;;;;;;25.53;13.87;;;;;;;;;;4984773;28;20614;-90
2023/01/23 10:57:27;;;;;;;22.40;12.93;;;;;;;;;;5007520;28;20607;-89
2023/01/23 11:00:38;;;;;;;26.33;13.13;;;;;;;;;;4995673;28;20556;-89
2023/01/23 11:03:44;;;;;;;27.90;13.97;;;;;;;;;;4998224;28;20562;-87
2023/01/23 11:07:09;;;;;;;26.07;14.07;;;;;;;;;;5006256;28;20556;-87
2023/01/23 11:10:20;;;;;;;25.63;14.27;;;;;;;;;;4997841;28;20556;-83
2023/01/23 11:13:26;;;;;;;24.17;13.37;;;;;;;;;;5012736;28;20631;-87
2023/01/23 11:16:31;;;;;;;25.77;14.37;;;;;;;;;;5001292;28;20616;-87
2023/01/23 11:19:36;;;;;;;24.67;13.60;;;;;;;;;;4988765;28;20564;-87
2023/01/23 11:22:41;;;;;;;24.23;13.10;;;;;;;;;;4990033;28;20991;-89
2023/01/23 11:25:48;;;;;;;24.57;13.30;;;;;;;;;;5012715;28;20553;-87
2023/01/23 11:28:52;;;;;;;25.43;13.93;;;;;;;;;;5012992;28;20564;-86
2023/01/23 11:32:01;;;;;;;26.73;14.80;;;;;;;;;;4997124;28;20637;-87
2023/01/23 11:35:19;;;;;;;26.97;14.97;;;;;;;;;;4995663;28;20591;-84
2023/01/23 11:38:35;;;;;;;28.10;15.33;;;;;;;;;;5011864;28;20551;-87
2023/01/23 11:41:39;;;;;;;22.67;12.07;;;;;;;;;;4999736;28;20627;-86
2023/01/23 11:44:45;;;;;;;21.07;12.67;;;;;;;;;;4998603;28;20615;-85
2023/01/23 11:48:09;;;;;;;24.13;13.70;;;;;;;;;;4987136;28;20601;-87
2023/01/23 11:51:31;;;;;;;28.47;15.57;;;;;;;;;;4992938;28;20555;-87
2023/01/23 11:54:58;;;;;;;20.67;11.57;;;;;;;;;;5001335;28;20169;-84
2023/01/23 11:58:30;;;;;;;19.33;11.13;;;;;;;;;;5002363;28;20601;-86
2023/01/23 12:01:44;;;;;;;21.03;12.87;;;;;;;;;;5001639;28;20630;-87
2023/01/23 12:05:12;;;;;;;21.57;12.73;;;;;;;;;;5012583;28;20552;-87
2023/01/23 12:08:41;;;;;;;21.70;12.03;;;;;;;;;;5006672;28;20559;-87
2023/01/23 12:12:17;;;;;;;21.93;11.97;;;;;;;;;;4992384;28;20640;-86
2023/01/23 12:15:28;;;;;;;23.30;13.07;;;;;;;;;;5002616;28;20552;-87
2023/01/23 12:18:51;;;;;;;20.53;11.93;;;;;;;;;;5003307;28;20588;-88
2023/01/23 12:22:29;;;;;;;21.73;12.27;;;;;;;;;;4991810;28;20634;-87
2023/01/23 12:25:38;;;;;;;20.00;11.97;;;;;;;;;;5023415;28;20563;-88
2023/01/23 12:29:03;;;;;;;24.83;13.10;;;;;;;;;;4990116;28;20607;-87
2023/01/23 12:32:20;;;;;;;22.73;12.33;;;;;;;;;;4987300;28;20620;-88
2023/01/23 12:36:06;;;;;;;21.67;12.03;;;;;;;;;;5014012;28;20564;-88
2023/01/23 12:39:36;;;;;;;21.13;12.17;;;;;;;;;;5006451;28;21197;-88
2023/01/23 12:43:00;;;;;;;20.53;11.53;;;;;;;;;;4991904;28;20621;-89
2023/01/23 12:46:09;;;;;;;20.60;12.07;;;;;;;;;;5017813;28;20556;-87
2023/01/23 12:49:39;;;;;;;20.80;11.97;;;;;;;;;;5006398;28;20556;-87
2023/01/23 12:52:53;;;;;;;20.90;11.40;;;;;;;;;;4993084;28;20987;-87
2023/01/23 12:56:16;;;;;;;19.73;11.27;;;;;;;;;;5003382;28;20566;-88
2023/01/23 12:59:24;;;;;;;25.80;14.13;;;;;;;;;;4992694;28;20566;-87
2023/01/23 13:02:46;;;;;;;22.90;12.30;;;;;;;;;;5003534;28;21007;-88
2023/01/23 13:05:59;;;;;;;20.73;11.77;;;;;;;;;;4994265;28;21138;-87
2023/01/23 13:09:16;;;;;;;17.20;11.07;;;;;;;;;;4992627;28;20561;-88
2023/01/23 13:12:28;;;;;;;19.57;11.87;;;;;;;;;;4993111;28;20627;-88
2023/01/23 13:15:33;;;;;;;21.50;12.93;;;;;;;;;;5006620;28;20917;-87
2023/01/23 13:22:04;;;;;;;17.70;10.17;;;;;;;;;;4993074;28;20631;-87
2023/01/23 13:25:17;;;;;;;25.93;13.50;;;;;;;;;;4993093;28;20562;-87
2023/01/23 13:28:34;;;;;;;22.70;12.67;;;;;;;;;;4983470;28;20921;-88
2023/01/23 13:31:49;;;;;;;23.67;12.87;;;;;;;;;;5003993;28;20627;-88
2023/01/23 13:34:52;;;;;;;23.70;14.03;;;;;;;;;;4993218;28;20564;-88
2023/01/23 13:37:58;;;;;;;16.13;10.53;;;;;;;;;;5004507;28;20621;-88
2023/01/23 13:41:07;;;;;;;23.03;13.30;;;;;;;;;;4984261;28;20694;-87
2023/01/23 13:44:57;;;;;;;19.00;11.03;;;;;;;;;;5007009;28;20616;-88
2023/01/23 13:51:44;;;;;;;18.40;10.03;;;;;;;;;;5004230;28;20218;-87
2023/01/23 13:58:19;;;;;;;23.53;12.23;;;;;;;;;;4992261;28;20608;-88
2023/01/23 14:05:14;;;;;;;20.37;11.43;;;;;;;;;;5003643;28;20184;-87
2023/01/23 14:08:21;;;;;;;19.80;11.40;;;;;;;;;;5004827;28;20550;-87
2023/01/23 14:11:35;;;;;;;15.97;10.30;;;;;;;;;;4995330;28;20178;-87
2023/01/23 14:18:05;;;;;;;14.93;9.53;;;;;;;;;;4994770;28;20573;-87
2023/01/23 14:21:20;;;;;;;16.60;10.27;;;;;;;;;;5006102;28;20186;-88
2023/01/23 14:24:28;;;;;;;18.43;10.43;;;;;;;;;;4994345;28;20228;-89
2023/01/23 14:27:36;;;;;;;17.90;11.23;;;;;;;;;;5005813;28;20185;-88
2023/01/23 14:30:40;;;;;;;16.37;10.07;;;;;;;;;;5005266;28;20184;-89
2023/01/23 14:33:44;;;;;;;17.73;10.57;;;;;;;;;;4983368;28;20555;-88
2023/01/23 14:37:07;;;;;;;17.50;11.27;;;;;;;;;;4996621;28;20186;-88
2023/01/23 14:40:19;;;;;;;20.63;12.23;;;;;;;;;;5007641;28;20666;-88
2023/01/23 14:43:27;;;;;;;17.47;10.47;;;;;;;;;;5007231;28;20216;-88
2023/01/23 14:46:35;;;;;;;16.27;10.27;;;;;;;;;;4996153;28;20542;-87
2023/01/23 14:49:42;;;;;;;20.47;11.47;;;;;;;;;;5008119;28;20556;-87
2023/01/23 14:52:56;;;;;;;15.53;10.20;;;;;;;;;;4996187;28;20217;-87
2023/01/23 14:56:01;;;;;;;17.30;10.40;;;;;;;;;;4996111;28;20661;-87
2023/01/23 14:59:36;;;;;;;15.43;10.13;;;;;;;;;;4995638;28;20216;-87
2023/01/23 15:02:42;;;;;;;17.13;9.37;;;;;;;;;;4995975;28;20639;-86
2023/01/23 15:05:58;;;;;;;17.27;10.53;;;;;;;;;;4984307;28;20549;-87
2023/01/23 15:09:12;;;;;;;16.77;10.70;;;;;;;;;;4994676;28;20556;-88
2023/01/23 15:12:17;;;;;;;16.90;10.23;;;;;;;;;;4994616;28;20216;-88
2023/01/23 15:15:23;;;;;;;18.33;10.53;;;;;;;;;;4994510;28;20206;-87
2023/01/23 15:18:31;;;;;;;16.17;10.47;;;;;;;;;;5005518;28;20709;-87
2023/01/23 15:21:39;;;;;;;17.77;10.53;;;;;;;;;;4983348;28;20328;-87
2023/01/23 15:24:43;;;;;;;16.43;10.57;;;;;;;;;;5006520;28;21175;-88
2023/01/23 15:27:47;;;;;;;15.13;10.37;;;;;;;;;;5006891;28;20917;-87
2023/01/23 15:30:52;;;;;;;16.27;10.87;;;;;;;;;;5007212;28;20619;-87
2023/01/23 15:34:16;;;;;;;18.37;11.40;;;;;;;;;;4983959;28;20603;-88
2023/01/23 15:37:26;;;;;;;22.40;11.93;;;;;;;;;;5006293;28;20633;-88
2023/01/23 15:40:34;;;;;;;17.80;11.53;;;;;;;;;;5006022;28;20556;-87
2023/01/23 15:43:38;;;;;;;20.13;11.83;;;;;;;;;;4984317;28;20564;-87
2023/01/23 15:46:43;;;;;;;17.13;10.93;;;;;;;;;;4994739;28;20562;-87
2023/01/23 15:49:47;;;;;;;18.33;10.70;;;;;;;;;;4994530;28;20560;-87
2023/01/23 15:52:52;;;;;;;17.80;10.83;;;;;;;;;;4994414;28;20630;-88
2023/01/23 15:55:56;;;;;;;16.17;10.77;;;;;;;;;;4994244;28;20564;-88
2023/01/23 15:59:01;;;;;;;21.70;12.57;;;;;;;;;;4994802;28;21026;-87
2023/01/23 16:02:07;;;;;;;19.90;11.47;;;;;;;;;;4994192;28;20639;-88
2023/01/23 16:05:12;;;;;;;17.27;11.10;;;;;;;;;;4983333;28;20710;-87
2023/01/23 16:08:19;;;;;;;19.27;11.53;;;;;;;;;;4993936;28;20552;-88
2023/01/23 16:11:25;;;;;;;17.20;11.00;;;;;;;;;;4994553;28;20560;-88
2023/01/23 16:14:29;;;;;;;17.30;10.57;;;;;;;;;;4993480;28;20564;-87
2023/01/23 16:17:34;;;;;;;19.37;12.77;;;;;;;;;;4993972;28;20616;-88
2023/01/23 16:20:42;;;;;;;18.83;12.40;;;;;;;;;;4993782;28;20556;-88
2023/01/23 16:23:46;;;;;;;21.50;12.67;;;;;;;;;;4994294;28;20609;-88
2023/01/23 16:26:50;;;;;;;17.57;11.40;;;;;;;;;;5005453;28;20556;-88
2023/01/23 16:29:55;;;;;;;21.23;12.27;;;;;;;;;;5006590;28;20556;-88
2023/01/23 16:32:59;;;;;;;19.20;11.70;;;;;;;;;;4987248;28;20627;-88
2023/01/23 16:36:04;;;;;;;19.37;11.87;;;;;;;;;;4994516;28;20551;-88
2023/01/23 16:39:16;;;;;;;22.67;13.20;;;;;;;;;;4994462;28;20607;-87
2023/01/23 16:42:22;;;;;;;17.93;11.57;;;;;;;;;;4983074;28;20988;-87
2023/01/23 16:45:29;;;;;;;22.80;13.27;;;;;;;;;;4995476;28;20609;-87
2023/01/23 16:48:33;;;;;;;22.57;13.23;;;;;;;;;;4993781;28;20568;-87
2023/01/23 16:51:38;;;;;;;22.17;13.57;;;;;;;;;;4994248;28;20631;-88
2023/01/23 16:54:43;;;;;;;24.07;14.40;;;;;;;;;;4986178;28;20589;-87
2023/01/23 16:57:50;;;;;;;21.87;13.50;;;;;;;;;;4994340;28;21187;-88
2023/01/23 17:01:09;;;;;;;24.23;14.10;;;;;;;;;;4993605;28;21122;-87
2023/01/23 17:04:16;;;;;;;22.23;13.50;;;;;;;;;;4992775;28;20564;-87
2023/01/23 17:07:20;;;;;;;21.80;13.53;;;;;;;;;;4981402;28;20567;-87
2023/01/23 17:10:26;;;;;;;24.20;13.87;;;;;;;;;;4992559;28;20565;-87
2023/01/23 17:13:33;;;;;;;24.33;13.70;;;;;;;;;;5003739;28;20644;-87
2023/01/23 17:16:38;;;;;;;19.97;12.63;;;;;;;;;;4992873;28;21131;-87
2023/01/23 17:19:44;;;;;;;21.47;13.67;;;;;;;;;;5003689;28;20616;-87
2023/01/23 17:22:48;;;;;;;25.33;13.67;;;;;;;;;;4992138;28;21230;-88
2023/01/23 17:25:52;;;;;;;25.23;14.70;;;;;;;;;;5003081;28;20560;-87
2023/01/23 17:28:56;;;;;;;24.70;15.40;;;;;;;;;;5003437;28;20553;-87
2023/01/23 17:32:01;;;;;;;23.47;14.43;;;;;;;;;;4991995;28;20623;-87
2023/01/23 17:35:11;;;;;;;26.57;15.30;;;;;;;;;;4991999;28;20560;-87
2023/01/23 17:38:19;;;;;;;27.50;15.10;;;;;;;;;;4991949;28;20625;-88
2023/01/23 17:41:24;;;;;;;26.17;14.70;;;;;;;;;;5003607;28;20821;-87
2023/01/23 17:44:28;;;;;;;25.17;14.47;;;;;;;;;;5006731;28;20662;-87
2023/01/23 17:47:33;;;;;;;26.13;15.17;;;;;;;;;;5007332;28;20571;-87
2023/01/23 17:50:37;;;;;;;23.77;14.43;;;;;;;;;;4984812;28;20909;-87
2023/01/23 17:53:41;;;;;;;25.80;15.20;;;;;;;;;;4996975;28;20555;-87
2023/01/23 17:56:46;;;;;;;26.03;15.37;;;;;;;;;;4985405;28;20570;-88
2023/01/23 17:59:50;;;;;;;24.40;15.37;;;;;;;;;;4995339;28;20603;-87
2023/01/23 18:02:57;;;;;;;25.17;13.93;;;;;;;;;;5018345;28;20634;-87
2023/01/23 18:06:01;;;;;;;23.43;14.60;;;;;;;;;;4995580;28;20907;-87
2023/01/23 18:09:06;;;;;;;23.03;14.87;;;;;;;;;;4996081;28;20599;-87
2023/01/23 18:12:41;;;;;;;27.70;14.97;;;;;;;;;;5006626;28;20633;-87
2023/01/23 18:16:04;;;;;;;26.40;14.97;;;;;;;;;;4995363;28;20561;-87
2023/01/23 18:19:20;;;;;;;24.67;15.03;;;;;;;;;;5006413;28;20961;-87
2023/01/23 18:22:25;;;;;;;23.17;14.30;;;;;;;;;;5006396;28;20627;-88
2023/01/23 18:25:29;;;;;;;26.10;15.47;;;;;;;;;;4995302;28;20559;-87
2023/01/23 18:28:50;;;;;;;27.03;15.63;;;;;;;;;;4994866;28;20553;-88
2023/01/23 18:32:06;;;;;;;29.67;16.20;;;;;;;;;;4983445;28;20638;-87
2023/01/23 18:35:49;;;;;;;25.23;15.47;;;;;;;;;;4984463;28;20556;-88
2023/01/23 18:39:14;;;;;;;24.33;14.67;;;;;;;;;;4995286;28;20968;-87
2023/01/23 18:42:37;;;;;;;26.47;15.53;;;;;;;;;;4995525;28;20627;-87
2023/01/23 18:45:42;;;;;;;24.83;15.50;;;;;;;;;;4983934;28;20611;-87
2023/01/23 18:48:48;;;;;;;26.93;15.00;;;;;;;;;;4994941;28;20603;-87